Time;durP1;ratioP1;P1;durP2;ratioP2;P2;SDS_P1;SDS_P2;PMS_P1;PMS_P2;Temp;Humidity;BMP_temperature;BMP_pressure;BME280_temperature;BME280_humidity;BME280_pressure;Samples;Min_cycle;Max_cycle;Signal;HPM_P1;HPM_P2
2022/12/10 00:02:59;;;;;;;42.33;21.52;;;0.40;83.80;;;;;;9172339;19;20038;-63
2022/12/10 00:06:04;;;;;;;47.15;22.10;;;0.40;83.20;;;;;;9169789;19;20007;-62
2022/12/10 00:09:11;;;;;;;45.92;22.00;;;0.40;83.30;;;;;;9172805;19;20018;-67
2022/12/10 00:12:17;;;;;;;41.97;21.00;;;0.30;83.20;;;;;;9172532;19;20507;-63
2022/12/10 00:15:20;;;;;;;54.47;22.65;;;0.30;83.20;;;;;;9170286;19;20891;-62
2022/12/10 00:18:25;;;;;;;45.70;22.73;;;0.30;83.30;;;;;;9185066;19;20018;-62
2022/12/10 00:21:30;;;;;;;44.75;22.50;;;0.30;83.20;;;;;;9182940;19;20364;-61
2022/12/10 00:24:34;;;;;;;47.47;22.33;;;0.30;83.20;;;;;;9180577;19;20018;-61
2022/12/10 00:27:40;;;;;;;50.38;21.50;;;0.30;83.20;;;;;;9183316;19;20021;-62
2022/12/10 00:30:43;;;;;;;45.05;20.42;;;0.30;83.30;;;;;;9180506;19;20639;-62
2022/12/10 00:33:49;;;;;;;46.03;22.15;;;0.20;83.20;;;;;;9184028;19;20015;-61
2022/12/10 00:36:53;;;;;;;44.33;20.17;;;0.20;83.80;;;;;;9183670;19;20027;-61
2022/12/10 00:39:56;;;;;;;;;;;0.20;83.20;;;;;;9184178;19;20019;-62
2022/12/10 00:43:02;;;;;;;44.22;20.77;;;0.20;83.20;;;;;;9184881;19;19918;-63
2022/12/10 00:46:06;;;;;;;45.00;22.55;;;0.20;83.20;;;;;;9181731;19;20010;-62
2022/12/10 00:49:11;;;;;;;44.25;22.17;;;0.10;83.10;;;;;;9184827;19;20042;-65
2022/12/10 00:52:15;;;;;;;47.08;22.05;;;0.10;83.20;;;;;;9182812;19;20479;-64
2022/12/10 00:55:19;;;;;;;44.13;21.33;;;0.10;83.10;;;;;;9184057;19;20030;-63
2022/12/10 00:58:25;;;;;;;50.72;23.27;;;0.10;83.20;;;;;;9183915;19;20017;-64
2022/12/10 01:01:31;;;;;;;46.67;21.40;;;0.10;83.20;;;;;;9182583;19;20022;-62
2022/12/10 01:04:35;;;;;;;47.95;21.42;;;0.10;83.20;;;;;;9183456;19;20024;-63
2022/12/10 01:07:38;;;;;;;44.65;22.05;;;0.10;83.20;;;;;;9184160;19;20333;-65
2022/12/10 01:10:42;;;;;;;43.70;22.15;;;0.00;83.20;;;;;;9179606;19;20014;-62
2022/12/10 01:13:49;;;;;;;44.67;21.40;;;0.00;83.10;;;;;;9183343;19;20500;-64
2022/12/10 01:16:57;;;;;;;46.45;21.55;;;0.00;83.20;;;;;;9181365;19;20018;-64
2022/12/10 01:20:01;;;;;;;47.80;21.88;;;0.00;83.20;;;;;;9183679;19;20515;-64
2022/12/10 01:23:05;;;;;;;47.63;21.42;;;0.00;83.20;;;;;;9183029;19;20025;-63
2022/12/10 01:26:10;;;;;;;47.97;20.77;;;0.00;83.20;;;;;;9177510;19;20019;-65
2022/12/10 01:29:17;;;;;;;50.45;22.88;;;0.00;83.20;;;;;;9180625;19;20007;-62
2022/12/10 01:32:20;;;;;;;51.45;22.17;;;-0.10;83.20;;;;;;9181088;19;20022;-62
2022/12/10 01:35:24;;;;;;;48.25;22.85;;;-0.10;83.20;;;;;;9182993;19;20006;-64
2022/12/10 01:38:28;;;;;;;51.05;22.77;;;-0.10;83.20;;;;;;9182837;19;20034;-64
2022/12/10 01:41:36;;;;;;;54.20;23.23;;;-0.10;83.20;;;;;;9183078;19;20013;-63
2022/12/10 01:45:01;;;;;;;57.08;24.17;;;-0.10;83.20;;;;;;9182558;19;20018;-62
2022/12/10 01:48:07;;;;;;;52.97;22.83;;;-0.10;83.20;;;;;;9183012;19;20038;-63
2022/12/10 01:51:12;;;;;;;50.58;23.35;;;-0.10;83.30;;;;;;9180400;19;20022;-61
2022/12/10 01:54:20;;;;;;;52.28;23.38;;;-0.10;83.20;;;;;;9181768;19;20030;-63
2022/12/10 01:57:26;;;;;;;55.92;23.95;;;-0.10;83.20;;;;;;9183028;19;20022;-62
2022/12/10 02:00:34;;;;;;;53.70;24.00;;;-0.10;83.30;;;;;;9183009;19;20022;-61
2022/12/10 02:03:52;;;;;;;54.38;24.95;;;-0.10;83.30;;;;;;9182114;19;20027;-63
2022/12/10 02:07:02;;;;;;;54.60;25.33;;;-0.10;83.30;;;;;;9178180;19;20019;-62
2022/12/10 02:10:21;;;;;;;59.85;25.85;;;-0.10;83.30;;;;;;9182502;19;20646;-65
2022/12/10 02:13:32;;;;;;;61.63;24.70;;;-0.10;83.30;;;;;;9180600;19;20022;-62
2022/12/10 02:16:42;;;;;;;57.35;24.60;;;0.00;83.40;;;;;;9181426;19;20360;-62
2022/12/10 02:20:03;;;;;;;59.72;26.23;;;0.00;83.40;;;;;;9180056;19;20018;-65
2022/12/10 02:23:10;;;;;;;53.03;24.38;;;0.00;83.40;;;;;;9181447;19;20019;-64
2022/12/10 02:26:22;;;;;;;58.58;25.80;;;0.00;83.40;;;;;;9172303;19;20043;-64
2022/12/10 02:29:30;;;;;;;62.38;26.42;;;0.10;83.50;;;;;;9180369;19;20495;-62
2022/12/10 02:32:38;;;;;;;59.95;24.08;;;0.10;83.40;;;;;;9181642;19;20047;-63
2022/12/10 02:35:43;;;;;;;58.50;26.92;;;0.10;83.40;;;;;;9180753;19;20041;-62
2022/12/10 02:38:49;;;;;;;55.72;24.13;;;0.10;83.40;;;;;;9179259;19;20575;-61
2022/12/10 02:41:55;;;;;;;56.88;24.13;;;0.10;83.40;;;;;;9179621;19;20018;-63
2022/12/10 02:45:03;;;;;;;56.72;25.38;;;0.20;83.50;;;;;;9178363;19;20022;-63
2022/12/10 02:48:08;;;;;;;54.53;24.90;;;0.20;83.40;;;;;;9179414;19;20025;-61
2022/12/10 02:51:19;;;;;;;58.78;25.45;;;0.20;83.40;;;;;;9178646;19;20023;-63
2022/12/10 02:54:40;;;;;;;52.45;24.40;;;0.20;83.40;;;;;;9179031;19;20014;-62
2022/12/10 02:57:58;;;;;;;55.45;25.15;;;0.20;83.40;;;;;;9179477;19;20089;-64
2022/12/10 03:01:10;;;;;;;62.30;26.63;;;0.20;83.40;;;;;;9179029;19;20733;-62
2022/12/10 03:04:19;;;;;;;59.75;26.45;;;0.20;83.40;;;;;;9176562;19;20032;-61
2022/12/10 03:07:29;;;;;;;57.83;24.98;;;0.30;83.50;;;;;;9176756;19;20130;-62
2022/12/10 03:10:39;;;;;;;59.97;24.38;;;0.30;83.50;;;;;;9179982;19;20368;-62
2022/12/10 03:13:52;;;;;;;63.35;24.65;;;0.30;83.50;;;;;;9180201;19;20010;-61
2022/12/10 03:17:00;;;;;;;59.95;24.92;;;0.40;83.50;;;;;;9179826;19;20015;-62
2022/12/10 03:20:08;;;;;;;57.67;24.08;;;0.40;83.60;;;;;;9179198;19;20014;-62
2022/12/10 03:23:16;;;;;;;61.50;26.58;;;0.40;83.50;;;;;;9178598;19;20455;-61
2022/12/10 03:26:21;;;;;;;61.50;24.65;;;0.40;83.50;;;;;;9172091;19;20018;-62
2022/12/10 03:29:31;;;;;;;57.55;24.83;;;0.40;83.50;;;;;;9178631;19;20372;-64
2022/12/10 03:32:37;;;;;;;66.35;25.02;;;0.40;83.60;;;;;;9177870;19;20007;-62
2022/12/10 03:35:42;;;;;;;58.03;24.30;;;0.40;83.50;;;;;;9178368;19;20018;-65
2022/12/10 03:38:45;;;;;;;61.60;25.02;;;0.40;83.50;;;;;;9179053;19;20467;-62
2022/12/10 03:41:49;;;;;;;60.08;23.67;;;0.40;83.50;;;;;;9179050;19;20018;-63
2022/12/10 03:44:53;;;;;;;;;;;0.40;83.50;;;;;;9179577;19;20019;-66
2022/12/10 03:47:59;;;;;;;64.28;26.38;;;0.40;83.50;;;;;;9177517;19;19922;-62
2022/12/10 03:51:02;;;;;;;62.88;26.45;;;0.40;83.40;;;;;;9174171;19;20029;-61
2022/12/10 03:54:06;;;;;;;;;;;0.40;83.40;;;;;;9179024;19;20042;-65
2022/12/10 03:57:10;;;;;;;60.33;24.90;;;0.40;83.50;;;;;;9177969;19;20329;-63
2022/12/10 04:00:13;;;;;;;;;;;0.40;83.50;;;;;;9176551;19;20026;-61
2022/12/10 04:03:19;;;;;;;;;;;0.40;83.50;;;;;;9178567;19;19974;-62
2022/12/10 04:06:23;;;;;;;62.00;25.58;;;0.30;83.40;;;;;;9175344;19;19950;-64
2022/12/10 04:09:27;;;;;;;63.38;27.10;;;0.30;83.40;;;;;;9176202;19;20033;-62
2022/12/10 04:12:31;;;;;;;67.40;25.10;;;0.30;83.40;;;;;;9177317;19;20027;-61
2022/12/10 04:18:53;;;;;;;68.45;26.42;;;0.20;83.50;;;;;;9176814;19;20364;-60
2022/12/10 04:28:38;;;;;;;61.10;24.45;;;0.20;83.60;;;;;;9176880;19;20424;-61
2022/12/10 04:31:41;;;;;;;62.85;25.00;;;0.20;83.70;;;;;;9176587;19;20702;-61
2022/12/10 04:34:47;;;;;;;;;;;0.20;83.60;;;;;;9178335;19;20023;-63
2022/12/10 04:37:51;;;;;;;54.00;23.67;;;0.10;83.60;;;;;;9176686;19;19931;-63
2022/12/10 04:40:54;;;;;;;;;;;0.10;83.50;;;;;;9177709;19;20035;-62
2022/12/10 04:43:58;;;;;;;68.28;24.95;;;0.10;83.50;;;;;;9176300;19;19918;-64
2022/12/10 04:47:02;;;;;;;;;;;0.10;83.50;;;;;;9173994;19;20044;-63
2022/12/10 04:50:08;;;;;;;65.15;25.73;;;0.00;83.50;;;;;;9176099;19;19933;-62
2022/12/10 04:53:12;;;;;;;64.00;27.40;;;0.00;83.50;;;;;;9172619;19;20114;-63
2022/12/10 04:56:16;;;;;;;;;;;0.00;83.50;;;;;;9174006;19;20018;-62
2022/12/10 04:59:20;;;;;;;67.97;26.00;;;-0.10;83.50;;;;;;9175626;19;19993;-63
2022/12/10 05:02:23;;;;;;;62.72;24.48;;;-0.10;83.50;;;;;;9178045;19;20073;-65
2022/12/10 05:05:29;;;;;;;62.90;26.08;;;-0.10;83.60;;;;;;9183273;19;20491;-63
2022/12/10 05:08:33;;;;;;;62.45;25.52;;;-0.10;83.60;;;;;;9184453;19;20118;-63
2022/12/10 05:11:37;;;;;;;67.88;26.00;;;-0.10;83.60;;;;;;9184533;19;20030;-64
2022/12/10 05:14:41;;;;;;;61.47;24.00;;;-0.20;83.60;;;;;;9182414;19;20398;-62
2022/12/10 05:17:45;;;;;;;60.72;25.48;;;-0.20;83.60;;;;;;9182449;19;20023;-63
2022/12/10 05:20:51;;;;;;;65.43;25.10;;;-0.20;83.60;;;;;;9183965;19;20416;-62
2022/12/10 05:23:52;;;;;;;61.92;24.48;;;-0.20;83.70;;;;;;9177855;19;20018;-68
2022/12/10 05:26:56;;;;;;;73.88;27.38;;;-0.20;83.60;;;;;;9180585;19;20072;-62
2022/12/10 05:30:00;;;;;;;72.68;26.50;;;-0.20;83.60;;;;;;9183059;19;20030;-61
2022/12/10 05:33:04;;;;;;;63.80;25.92;;;-0.30;83.60;;;;;;9181139;19;20026;-62
2022/12/10 05:36:11;;;;;;;73.40;28.13;;;-0.20;83.60;;;;;;9183691;19;20348;-61
2022/12/10 05:39:16;;;;;;;66.95;26.30;;;-0.30;83.60;;;;;;9183091;19;20487;-62
2022/12/10 05:42:19;;;;;;;70.40;26.80;;;-0.20;83.70;;;;;;9183352;19;20038;-63
2022/12/10 05:45:23;;;;;;;66.85;26.27;;;-0.20;83.70;;;;;;9181425;19;20368;-65
2022/12/10 05:48:27;;;;;;;65.68;25.42;;;-0.30;83.70;;;;;;9182464;19;20031;-62
2022/12/10 05:51:35;;;;;;;70.97;26.00;;;-0.30;84.20;;;;;;9175508;19;20026;-63
2022/12/10 05:54:40;;;;;;;67.78;26.95;;;-0.30;83.60;;;;;;9180996;19;20056;-63
2022/12/10 05:57:44;;;;;;;67.57;26.55;;;-0.30;83.60;;;;;;9179513;19;20022;-61
2022/12/10 06:00:48;;;;;;;70.88;28.77;;;-0.30;83.70;;;;;;9177825;19;20022;-63
2022/12/10 06:03:52;;;;;;;69.38;26.83;;;-0.30;83.60;;;;;;9181282;19;20046;-62
2022/12/10 06:06:57;;;;;;;69.75;26.95;;;-0.30;83.60;;;;;;9176609;19;20043;-62
2022/12/10 06:10:01;;;;;;;64.40;26.08;;;-0.30;83.60;;;;;;9177519;19;20098;-63
2022/12/10 06:13:05;;;;;;;67.13;26.92;;;-0.30;83.60;;;;;;9176243;19;20022;-64
2022/12/10 06:16:11;;;;;;;69.28;26.33;;;-0.30;83.60;;;;;;9174661;19;20018;-62
2022/12/10 06:19:15;;;;;;;70.53;25.58;;;-0.30;83.60;;;;;;9176646;19;20014;-63
2022/12/10 06:22:21;;;;;;;62.15;24.88;;;-0.30;83.60;;;;;;9180420;19;20053;-64
2022/12/10 06:25:24;;;;;;;66.78;27.02;;;-0.30;83.60;;;;;;9176061;19;20530;-63
2022/12/10 06:28:28;;;;;;;;;;;-0.30;83.60;;;;;;9182855;19;20035;-63
2022/12/10 06:31:34;;;;;;;70.43;26.27;;;-0.40;83.60;;;;;;9181400;19;19914;-61
2022/12/10 06:34:38;;;;;;;71.38;24.92;;;-0.40;83.50;;;;;;9181753;19;20018;-64
2022/12/10 06:37:48;;;;;;;71.22;28.05;;;-0.40;83.50;;;;;;9181747;19;20022;-63
2022/12/10 06:40:52;;;;;;;69.00;26.45;;;-0.40;83.60;;;;;;9180884;19;20078;-62
2022/12/10 06:43:58;;;;;;;66.72;26.70;;;-0.40;83.60;;;;;;9179258;19;20023;-65
2022/12/10 06:47:01;;;;;;;65.72;26.08;;;-0.40;83.70;;;;;;9177847;19;20014;-67
2022/12/10 06:50:06;;;;;;;77.78;28.92;;;-0.40;83.70;;;;;;9181271;19;20448;-62
2022/12/10 06:53:12;;;;;;;70.65;27.40;;;-0.40;83.70;;;;;;9178948;19;20014;-63
2022/12/10 06:56:19;;;;;;;72.63;27.63;;;-0.40;83.70;;;;;;9181299;19;20074;-63
2022/12/10 06:59:23;;;;;;;69.93;26.80;;;-0.40;83.70;;;;;;9180328;19;20025;-63
2022/12/10 07:02:26;;;;;;;;;;;-0.50;83.60;;;;;;9180840;19;20349;-62
2022/12/10 07:05:30;;;;;;;66.53;27.08;;;-0.50;83.60;;;;;;9177544;19;19922;-63
2022/12/10 07:08:36;;;;;;;;;;;-0.50;83.60;;;;;;9178260;19;20116;-63
2022/12/10 07:11:40;;;;;;;67.45;27.70;;;-0.50;83.60;;;;;;9178449;19;19922;-62
2022/12/10 07:14:44;;;;;;;77.45;28.10;;;-0.50;83.60;;;;;;9175384;19;20695;-63
2022/12/10 07:17:48;;;;;;;72.47;27.63;;;-0.50;83.60;;;;;;9174917;19;20045;-62
2022/12/10 07:20:51;;;;;;;;;;;-0.50;83.70;;;;;;9174597;19;20057;-62
2022/12/10 07:23:59;;;;;;;69.60;27.05;;;-0.50;83.70;;;;;;9171624;19;19934;-64
2022/12/10 07:27:06;;;;;;;63.92;25.92;;;-0.50;83.70;;;;;;9173733;19;20039;-62
2022/12/10 07:30:11;;;;;;;69.45;26.83;;;-0.60;83.60;;;;;;9180046;19;20018;-61
2022/12/10 07:33:15;;;;;;;73.18;27.20;;;-0.60;83.70;;;;;;9179351;19;20018;-63
2022/12/10 07:36:19;;;;;;;73.38;28.50;;;-0.60;83.70;;;;;;9177037;19;20017;-61
2022/12/10 07:39:25;;;;;;;72.22;27.65;;;-0.60;83.70;;;;;;9176127;19;20039;-62
2022/12/10 07:42:30;;;;;;;70.63;26.48;;;-0.60;83.70;;;;;;9175158;19;20051;-61
2022/12/10 07:45:34;;;;;;;65.00;27.02;;;-0.60;83.70;;;;;;9173060;19;20476;-64
2022/12/10 07:48:40;;;;;;;66.28;26.85;;;-0.60;83.80;;;;;;9169611;19;20015;-64
2022/12/10 07:51:46;;;;;;;71.25;28.33;;;-0.60;83.70;;;;;;9172065;19;20038;-64
2022/12/10 07:54:52;;;;;;;70.72;28.33;;;-0.60;84.40;;;;;;9172519;19;20018;-64
2022/12/10 07:57:56;;;;;;;68.32;27.00;;;-0.60;83.70;;;;;;9169190;19;20014;-63
2022/12/10 08:01:00;;;;;;;74.50;28.98;;;-0.60;83.80;;;;;;9168304;19;20742;-64
2022/12/10 08:04:03;;;;;;;67.88;27.38;;;-0.60;83.80;;;;;;9176396;19;20022;-61
2022/12/10 08:07:08;;;;;;;73.47;26.98;;;-0.60;83.80;;;;;;9174915;19;20034;-61
2022/12/10 08:10:14;;;;;;;75.03;28.65;;;-0.60;83.80;;;;;;9168599;19;20380;-62
2022/12/10 08:13:18;;;;;;;72.25;28.38;;;-0.60;83.80;;;;;;9169660;19;20007;-62
2022/12/10 08:16:25;;;;;;;82.88;29.23;;;-0.50;83.80;;;;;;9176257;19;20019;-62
2022/12/10 08:19:28;;;;;;;70.15;27.55;;;-0.50;83.80;;;;;;9172501;19;20015;-62
2022/12/10 08:22:36;;;;;;;69.25;28.23;;;-0.50;83.90;;;;;;9169756;19;20014;-62
2022/12/10 08:25:42;;;;;;;83.25;30.00;;;-0.40;83.90;;;;;;9168504;19;20042;-63
2022/12/10 08:28:46;;;;;;;73.10;27.90;;;-0.40;83.90;;;;;;9176429;19;20013;-61
2022/12/10 08:31:50;;;;;;;76.97;29.25;;;-0.40;83.90;;;;;;9172670;19;20025;-62
2022/12/10 08:34:54;;;;;;;76.47;27.25;;;-0.30;84.00;;;;;;9173085;19;20029;-61
2022/12/10 08:37:57;;;;;;;76.75;27.95;;;-0.30;83.90;;;;;;9176688;19;20061;-61
2022/12/10 08:41:06;;;;;;;;;;;-0.30;83.90;;;;;;9178214;19;20081;-63
2022/12/10 08:44:11;;;;;;;77.80;28.27;;;-0.20;84.00;;;;;;9181366;19;20276;-64
2022/12/10 08:47:14;;;;;;;83.70;31.58;;;-0.20;83.90;;;;;;9181404;19;20010;-62
2022/12/10 08:50:19;;;;;;;77.00;28.92;;;-0.20;83.90;;;;;;9183057;19;20054;-63
2022/12/10 08:53:23;;;;;;;74.50;28.92;;;-0.10;84.00;;;;;;9181342;19;20027;-66
2022/12/10 08:56:29;;;;;;;82.10;30.13;;;-0.10;84.00;;;;;;9183172;19;20018;-62
2022/12/10 08:59:33;;;;;;;72.47;30.15;;;-0.10;84.00;;;;;;9184674;19;20021;-62
2022/12/10 09:02:36;;;;;;;;;;;0.00;84.00;;;;;;9184122;19;20078;-61
2022/12/10 09:05:40;;;;;;;88.27;30.63;;;0.00;84.10;;;;;;9182413;19;19926;-65
2022/12/10 09:08:43;;;;;;;;;;;0.00;84.00;;;;;;9183428;19;20539;-62
2022/12/10 09:11:49;;;;;;;80.15;30.67;;;0.10;84.00;;;;;;9182382;19;20267;-63
2022/12/10 09:14:53;;;;;;;72.95;28.17;;;0.10;84.00;;;;;;9178112;19;20728;-63
2022/12/10 09:17:57;;;;;;;78.22;29.25;;;0.20;84.10;;;;;;9181186;19;20078;-62
2022/12/10 09:21:01;;;;;;;77.88;31.52;;;0.20;84.10;;;;;;9182142;19;20034;-67
2022/12/10 09:24:05;;;;;;;79.18;30.77;;;0.20;84.10;;;;;;9171293;19;20022;-63
2022/12/10 09:27:10;;;;;;;77.20;29.25;;;0.30;84.20;;;;;;9181305;19;20026;-65
2022/12/10 09:30:15;;;;;;;74.97;29.65;;;0.30;84.10;;;;;;9177226;19;20552;-63
2022/12/10 09:33:18;;;;;;;83.28;29.90;;;0.30;84.20;;;;;;9174190;19;20028;-65
2022/12/10 09:36:22;;;;;;;;;;;0.40;84.20;;;;;;9173780;19;20051;-63
2022/12/10 09:39:32;;;;;;;90.28;30.63;;;0.40;84.20;;;;;;9176644;19;19923;-63
2022/12/10 09:42:47;;;;;;;80.80;30.08;;;0.50;84.10;;;;;;9176977;19;20028;-64
2022/12/10 09:46:03;;;;;;;81.88;31.85;;;0.50;84.30;;;;;;9175873;19;20529;-64
2022/12/10 09:49:15;;;;;;;83.18;32.25;;;0.50;84.20;;;;;;9171467;19;20491;-63
2022/12/10 09:52:22;;;;;;;89.07;31.58;;;0.60;84.30;;;;;;9173285;19;20019;-62
2022/12/10 09:55:32;;;;;;;93.13;33.25;;;0.60;84.20;;;;;;9175687;19;20026;-64
2022/12/10 09:58:39;;;;;;;90.05;35.08;;;0.60;84.30;;;;;;9174022;19;20352;-66
2022/12/10 10:01:44;;;;;;;91.05;32.83;;;0.70;84.30;;;;;;9181600;19;20456;-61
2022/12/10 10:04:47;;;;;;;95.68;33.33;;;0.70;84.30;;;;;;9180812;19;20018;-61
2022/12/10 10:07:55;;;;;;;92.15;33.40;;;0.70;84.30;;;;;;9175501;19;20018;-62
2022/12/10 10:11:01;;;;;;;88.15;31.85;;;0.70;84.30;;;;;;9177612;19;20010;-64
2022/12/10 10:14:13;;;;;;;95.47;35.08;;;0.80;84.30;;;;;;9177400;19;20014;-63
2022/12/10 10:17:22;;;;;;;88.18;33.40;;;0.80;84.40;;;;;;9175262;19;20483;-64
2022/12/10 10:20:32;;;;;;;91.15;32.97;;;0.80;84.30;;;;;;9177321;19;20019;-65
2022/12/10 10:23:35;;;;;;;79.13;30.23;;;0.90;84.30;;;;;;9178235;19;20026;-63
2022/12/10 10:26:39;;;;;;;84.38;29.70;;;0.90;84.30;;;;;;9171242;19;20022;-66
2022/12/10 10:29:47;;;;;;;82.68;29.02;;;0.90;84.20;;;;;;9176933;19;20047;-63
2022/12/10 10:32:59;;;;;;;80.47;30.35;;;1.00;84.30;;;;;;9174234;19;20026;-64
2022/12/10 10:36:03;;;;;;;75.32;27.88;;;1.00;84.30;;;;;;9175902;19;20025;-62
2022/12/10 10:39:28;;;;;;;76.15;28.65;;;1.00;84.30;;;;;;9178770;19;20021;-63
2022/12/10 10:42:38;;;;;;;79.55;30.13;;;1.00;84.30;;;;;;9180686;19;20018;-65
2022/12/10 10:45:45;;;;;;;88.70;30.92;;;1.00;84.30;;;;;;9180179;19;20346;-65
2022/12/10 10:48:49;;;;;;;90.57;29.85;;;1.00;84.30;;;;;;9180808;19;20517;-62
2022/12/10 10:51:55;;;;;;;93.43;31.92;;;1.00;84.30;;;;;;9180199;19;20041;-63
2022/12/10 10:54:59;;;;;;;85.90;29.95;;;1.10;84.40;;;;;;9181781;19;20014;-63
2022/12/10 10:58:03;;;;;;;;;;;1.10;84.40;;;;;;9181982;19;20017;-63
2022/12/10 11:01:09;;;;;;;84.38;29.90;;;1.10;84.30;;;;;;9180629;19;20435;-62
2022/12/10 11:04:15;;;;;;;77.85;27.27;;;1.10;84.30;;;;;;9181133;19;20364;-62
2022/12/10 11:07:25;;;;;;;86.95;31.33;;;1.10;84.30;;;;;;9179056;19;20018;-63
2022/12/10 11:10:30;;;;;;;74.05;26.65;;;1.10;84.30;;;;;;9181397;19;20014;-62
2022/12/10 11:13:39;;;;;;;64.07;25.17;;;1.10;84.40;;;;;;9180207;19;20018;-62
2022/12/10 11:16:45;;;;;;;67.18;25.83;;;1.20;84.40;;;;;;9160919;19;20038;-67
2022/12/10 11:19:59;;;;;;;68.30;24.80;;;1.10;84.30;;;;;;9173188;19;20010;-66
2022/12/10 11:23:09;;;;;;;71.40;27.40;;;1.20;84.40;;;;;;9177916;19;20021;-66
2022/12/10 11:26:52;;;;;;;64.63;26.25;;;1.20;84.40;;;;;;9171842;19;20025;-66
2022/12/10 11:30:02;;;;;;;72.78;26.70;;;1.20;84.40;;;;;;9174014;19;20589;-67
2022/12/10 11:33:22;;;;;;;67.43;26.73;;;1.20;84.40;;;;;;9176596;19;20073;-66
2022/12/10 11:36:36;;;;;;;69.25;26.92;;;1.20;84.40;;;;;;9177314;19;20038;-67
2022/12/10 11:40:02;;;;;;;81.50;27.48;;;1.20;84.40;;;;;;9178002;19;20019;-66
2022/12/10 11:43:23;;;;;;;71.85;26.83;;;1.30;84.50;;;;;;9175295;19;20011;-67
2022/12/10 11:46:46;;;;;;;56.95;20.42;;;1.30;84.40;;;;;;9176386;19;20098;-66
2022/12/10 11:50:06;;;;;;;77.85;27.33;;;1.30;84.40;;;;;;9177550;19;20039;-67
2022/12/10 11:53:20;;;;;;;76.85;26.83;;;1.30;84.40;;;;;;9177107;19;20023;-66
2022/12/10 11:56:25;;;;;;;;;;;1.30;84.50;;;;;;9178471;19;20482;-66
2022/12/10 11:59:35;;;;;;;77.32;26.90;;;1.30;84.50;;;;;;9177007;19;19927;-66
2022/12/10 12:03:25;;;;;;;75.43;27.48;;;1.30;84.40;;;;;;9177540;19;20094;-66
2022/12/10 12:07:00;;;;;;;73.00;26.63;;;1.30;84.40;;;;;;9174723;19;20015;-66
2022/12/10 12:10:38;;;;;;;76.40;27.25;;;1.40;84.50;;;;;;9177404;19;20018;-67
2022/12/10 12:14:03;;;;;;;72.40;27.65;;;1.40;84.50;;;;;;9171313;19;20018;-67
2022/12/10 12:17:13;;;;;;;73.40;26.02;;;1.40;84.50;;;;;;9173343;19;20018;-65
2022/12/10 12:20:24;;;;;;;75.75;27.65;;;1.40;84.50;;;;;;9173427;19;20340;-66
2022/12/10 12:23:35;;;;;;;64.03;25.77;;;1.40;84.50;;;;;;9174577;19;20028;-66
2022/12/10 12:26:42;;;;;;;77.82;27.00;;;1.40;84.50;;;;;;9166682;19;20021;-65
2022/12/10 12:30:01;;;;;;;80.32;27.38;;;1.40;84.50;;;;;;9174832;19;20373;-66
2022/12/10 12:33:12;;;;;;;70.32;25.65;;;1.40;84.50;;;;;;9174408;19;20031;-65
2022/12/10 12:36:22;;;;;;;71.35;25.08;;;1.40;84.60;;;;;;9175941;19;20010;-67
2022/12/10 12:39:35;;;;;;;77.10;26.80;;;1.50;84.60;;;;;;9175121;19;20014;-66
2022/12/10 12:42:44;;;;;;;73.97;26.50;;;1.50;84.60;;;;;;9174709;19;20048;-65
2022/12/10 12:45:51;;;;;;;76.32;27.10;;;1.50;84.60;;;;;;9175379;19;20043;-66
2022/12/10 12:49:00;;;;;;;84.60;27.15;;;1.50;84.60;;;;;;9175478;19;20018;-65
2022/12/10 12:52:22;;;;;;;75.00;25.38;;;1.50;84.60;;;;;;9175651;19;20014;-67
2022/12/10 12:55:34;;;;;;;77.43;24.52;;;1.50;84.50;;;;;;9173120;19;20051;-67
2022/12/10 12:58:43;;;;;;;73.68;26.83;;;1.50;84.60;;;;;;9174019;19;20010;-65
2022/12/10 13:01:53;;;;;;;82.82;26.83;;;1.50;84.60;;;;;;9174955;19;20035;-65
2022/12/10 13:04:59;;;;;;;80.65;26.55;;;1.60;84.70;;;;;;9174707;19;20019;-65
2022/12/10 13:08:27;;;;;;;82.45;26.08;;;1.50;84.60;;;;;;9171052;19;20011;-67
2022/12/10 13:11:36;;;;;;;81.05;27.15;;;1.50;84.60;;;;;;9174542;19;20018;-66
2022/12/10 13:14:57;;;;;;;95.38;29.88;;;1.60;84.60;;;;;;9171388;19;20018;-67
2022/12/10 13:18:20;;;;;;;75.13;26.95;;;1.60;84.60;;;;;;9172066;19;20031;-67
2022/12/10 13:21:34;;;;;;;75.93;26.25;;;1.60;84.70;;;;;;9172273;19;20018;-66
2022/12/10 13:25:05;;;;;;;75.07;25.23;;;1.60;84.60;;;;;;9174293;19;20010;-66
2022/12/10 13:28:28;;;;;;;78.40;25.48;;;1.60;84.60;;;;;;9179988;19;20019;-67
2022/12/10 13:31:38;;;;;;;71.88;25.58;;;1.70;84.70;;;;;;9179654;19;20344;-66
2022/12/10 13:34:42;;;;;;;61.63;24.30;;;1.70;84.70;;;;;;9180438;19;20672;-66
2022/12/10 13:37:58;;;;;;;69.47;25.00;;;1.70;84.70;;;;;;9182142;19;20485;-67
2022/12/10 13:44:48;;;;;;;90.20;30.02;;;1.70;84.70;;;;;;9181638;19;20474;-66
2022/12/10 13:47:54;;;;;;;79.93;27.70;;;1.80;84.70;;;;;;9179317;19;20046;-67
2022/12/10 13:51:20;;;;;;;97.22;27.23;;;1.80;84.70;;;;;;9181030;19;20014;-67
2022/12/10 13:55:07;;;;;;;79.88;26.92;;;1.70;84.60;;;;;;9179379;19;20017;-67
2022/12/10 13:58:35;;;;;;;73.95;25.67;;;1.70;84.60;;;;;;9181263;19;20020;-67
2022/12/10 14:01:49;;;;;;;81.15;27.77;;;1.70;84.60;;;;;;9181279;19;20030;-66
2022/12/10 14:05:16;;;;;;;82.05;29.75;;;1.70;84.60;;;;;;9180471;19;20026;-67
2022/12/10 14:08:25;;;;;;;79.20;25.67;;;1.70;84.60;;;;;;9177304;19;20015;-67
2022/12/10 14:11:32;;;;;;;64.82;23.85;;;1.70;84.60;;;;;;9180415;19;20010;-67
2022/12/10 14:14:44;;;;;;;75.45;24.98;;;1.70;84.70;;;;;;9180387;19;20064;-67
2022/12/10 14:17:52;;;;;;;71.28;26.50;;;1.70;84.70;;;;;;9177769;19;20052;-67
2022/12/10 14:20:57;;;;;;;69.47;23.73;;;1.70;84.70;;;;;;9180186;19;20014;-67
2022/12/10 14:24:01;;;;;;;76.55;27.02;;;1.70;84.70;;;;;;9173159;19;20054;-67
2022/12/10 14:27:07;;;;;;;;;;;1.70;84.70;;;;;;9180367;19;20478;-66
2022/12/10 14:30:18;;;;;;;69.28;24.42;;;1.70;84.70;;;;;;9180245;19;19922;-65
2022/12/10 14:33:27;;;;;;;72.85;23.92;;;1.70;84.70;;;;;;9179683;19;20015;-66
2022/12/10 14:36:33;;;;;;;77.38;26.80;;;1.70;84.70;;;;;;9177359;19;20022;-67
2022/12/10 14:39:40;;;;;;;70.35;24.60;;;1.70;84.70;;;;;;9179568;19;20082;-67
2022/12/10 14:42:44;;;;;;;83.30;27.60;;;1.70;84.70;;;;;;9179345;19;20344;-67
2022/12/10 14:45:50;;;;;;;;;;;1.70;84.80;;;;;;9180636;19;20010;-67
2022/12/10 14:48:58;;;;;;;73.93;25.60;;;1.70;84.80;;;;;;9176318;19;20018;-67
2022/12/10 14:52:02;;;;;;;76.47;26.60;;;1.70;84.70;;;;;;9179260;19;20027;-67
2022/12/10 14:55:07;;;;;;;75.20;25.67;;;1.70;84.70;;;;;;9179016;19;20040;-67
2022/12/10 14:58:16;;;;;;;79.15;26.23;;;1.70;84.70;;;;;;9180153;19;20020;-67
2022/12/10 15:01:28;;;;;;;82.40;27.90;;;1.70;84.70;;;;;;9179407;19;20015;-67
2022/12/10 15:04:43;;;;;;;86.32;29.20;;;1.70;84.80;;;;;;9178784;19;20018;-67
2022/12/10 15:07:54;;;;;;;74.38;26.35;;;1.70;84.80;;;;;;9176566;19;20019;-67
2022/12/10 15:11:00;;;;;;;83.05;32.40;;;1.70;84.80;;;;;;9178622;19;20031;-67
2022/12/10 15:14:05;;;;;;;79.10;28.50;;;1.70;84.80;;;;;;9176484;19;20035;-67
2022/12/10 15:17:38;;;;;;;80.63;26.98;;;1.70;84.90;;;;;;9176540;19;20014;-67
2022/12/10 15:20:51;;;;;;;74.15;25.92;;;1.70;84.80;;;;;;9178228;19;20019;-67
2022/12/10 15:24:11;;;;;;;71.68;25.02;;;1.70;84.80;;;;;;9175229;19;20011;-68
2022/12/10 15:27:20;;;;;;;74.25;25.42;;;1.70;84.80;;;;;;9175921;19;20054;-67
2022/12/10 15:30:26;;;;;;;79.50;25.42;;;1.70;84.80;;;;;;9178232;19;20019;-67
2022/12/10 15:33:36;;;;;;;87.90;28.60;;;1.70;84.80;;;;;;9177921;19;20031;-67
2022/12/10 15:36:45;;;;;;;77.72;26.67;;;1.70;84.80;;;;;;9177856;19;20030;-66
2022/12/10 15:39:51;;;;;;;76.47;25.70;;;1.70;84.80;;;;;;9178305;19;20014;-67
2022/12/10 15:43:02;;;;;;;76.10;24.60;;;1.60;84.70;;;;;;9177393;19;20014;-67
2022/12/10 15:46:19;;;;;;;70.38;23.42;;;1.70;84.90;;;;;;9176083;19;20022;-67
2022/12/10 15:49:22;;;;;;;;;;;1.70;84.90;;;;;;9176040;19;20021;-67
2022/12/10 15:52:31;;;;;;;70.53;24.67;;;1.60;84.80;;;;;;9174987;19;19926;-67
2022/12/10 15:55:35;;;;;;;69.57;25.80;;;1.70;84.80;;;;;;9176758;19;20018;-66
2022/12/10 15:58:38;;;;;;;;;;;1.60;84.80;;;;;;9176213;19;20025;-67
2022/12/10 16:01:42;;;;;;;87.03;26.58;;;1.60;84.80;;;;;;9177547;19;20244;-66
2022/12/10 16:04:46;;;;;;;;;;;1.60;84.70;;;;;;9177504;19;20496;-67
2022/12/10 16:07:53;;;;;;;72.18;24.35;;;1.60;84.80;;;;;;9174084;19;19923;-66
2022/12/10 16:11:01;;;;;;;73.88;24.63;;;1.60;84.80;;;;;;9173598;19;20070;-67
2022/12/10 16:14:06;;;;;;;80.60;27.58;;;1.60;84.80;;;;;;9175972;19;20014;-67
2022/12/10 16:17:11;;;;;;;77.03;27.23;;;1.60;84.80;;;;;;9174660;19;20015;-66
2022/12/10 16:20:27;;;;;;;81.22;28.15;;;1.60;84.90;;;;;;9176002;19;20031;-66
2022/12/10 16:23:33;;;;;;;87.93;27.38;;;1.60;84.90;;;;;;9176595;19;20014;-67
2022/12/10 16:26:36;;;;;;;80.18;26.38;;;1.70;84.90;;;;;;9170718;19;20014;-66
2022/12/10 16:29:40;;;;;;;;;;;1.70;84.90;;;;;;9176658;19;20014;-66